Weather at Kågeröd Simmelsberga Airfield

Public forecast

Using degrees Celsius for public forecast. Weather courtesy of forecast.io.

Closest aviation weather report (METAR) to Kågeröd Simmelsberga Airfield

Closest report is Ljungbyhed Airfield, 7.6 nm (14.0 km) NE.

2024/05/30 08:20 (retrieved 36 minutes ago)

ESTL 300820Z 12009KT 9999 FEW008 SCT011 17/16 Q1008

Closest aviation forecast (TAF) to Kågeröd Simmelsberga Airfield

Closest forecast is Copenhagen Kastrup Airport, 26.3 nm (48.6 km) SSW.

2024/05/30 06:30 (retrieved 2 hours ago)

TAF EKCH 300508Z 3006/3106 13012KT 9999 FEW020 BKN040 TEMPO 3006/3007 4000 SHRA BR BKN012 BKN020CB TEMPO 3007/3009 BKN012 FEW020CB TEMPO 3009/3024 FEW020CB TEMPO 3100/3106 BKN008 SCT020CB